EGBJ/GLO METAR and TAF weather

Enter ICAO airport designator
Station Type Date Time Source
EGBJ METAR 2020/01/20 12:50 UTC NOAA

EGBJ 201250Z 00000KT 7000 1600NW VCFG FEW001 04/04 Q1047


Station Type Date Time Source
EGBJ Decoded METAR 2020/01/20 12:50 UTC NOAA

Staverton Private , United Kingdom (EGBJ) 51-54N 002-10W
Jan 20, 2020 - 07:50 AM EST / 2020.01.20 1250 UTC
Wind: Calm:0
Visibility: 4 mile(s):0
Sky conditions: mostly clear
Weather: fog in the vicinity
Temperature: 39 F (4 C)
Dew Point: 39 F (4 C)
Relative Humidity: 100%
Pressure (altimeter): 30.92 in. Hg (1047 hPa)
ob: EGBJ 201250Z 00000KT 7000 1600NW VCFG FEW001 04/04 Q1047
cycle: 13

Station Type Date Time Source
EGBJ TAF UTC NOAA

Error!

Example: see airport list